createdAt,value
2023-10-18T00:00:15.480Z,220
2023-10-18T00:01:15.535Z,215.5
2023-10-18T00:02:15.496Z,209.4
2023-10-18T00:03:15.593Z,214.9
2023-10-18T00:04:15.586Z,219
2023-10-18T00:05:15.508Z,204.7
2023-10-18T00:06:15.450Z,200.5
2023-10-18T00:07:15.546Z,209.4
2023-10-18T00:08:15.507Z,223.8
2023-10-18T00:09:15.508Z,204.7
2023-10-18T00:10:15.575Z,193.4
2023-10-18T00:11:15.491Z,189.3
2023-10-18T00:12:15.470Z,213.2
2023-10-18T00:13:15.539Z,172.5
2023-10-18T00:14:15.508Z,199.7
2023-10-18T00:15:15.457Z,175.1
2023-10-18T00:16:15.512Z,204.4
2023-10-18T00:17:15.469Z,198.7
2023-10-18T00:18:15.644Z,189
2023-10-18T00:19:15.524Z,192.6
2023-10-18T00:20:15.492Z,189.6
2023-10-18T00:21:15.469Z,201.3
2023-10-18T00:22:15.556Z,157.9
2023-10-18T00:23:15.535Z,195.3
2023-10-18T00:24:15.510Z,226.7
2023-10-18T00:25:15.553Z,202.5
2023-10-18T00:26:15.511Z,192.6
2023-10-18T00:27:15.507Z,199.2
2023-10-18T00:28:15.539Z,195.1
2023-10-18T00:29:15.495Z,184.8
2023-10-18T00:30:15.511Z,196.9
2023-10-18T00:31:15.576Z,184
2023-10-18T00:32:15.510Z,200.5
2023-10-18T00:33:15.453Z,220.3
2023-10-18T00:34:15.531Z,205.8
2023-10-18T00:35:15.495Z,207.6
2023-10-18T00:36:15.474Z,197.4
2023-10-18T00:37:15.503Z,213.2
2023-10-18T00:38:15.493Z,210.3
2023-10-18T00:39:15.519Z,219.8
2023-10-18T00:40:15.510Z,202.5
2023-10-18T00:41:15.514Z,191
2023-10-18T00:42:15.510Z,203
2023-10-18T00:43:15.748Z,194.3
2023-10-18T00:44:15.506Z,193.7
2023-10-18T00:45:15.489Z,193.7
2023-10-18T00:46:15.681Z,198.2
2023-10-18T00:47:15.494Z,200.8
2023-10-18T00:48:15.529Z,191.8
2023-10-18T00:49:15.859Z,218.3
2023-10-18T00:50:15.526Z,210.7
2023-10-18T00:51:15.494Z,209.4
2023-10-18T00:52:15.516Z,193.4
2023-10-18T00:53:15.491Z,165.1
2023-10-18T00:54:15.489Z,217.9
2023-10-18T00:55:15.569Z,184
2023-10-18T00:56:15.498Z,211.5
2023-10-18T00:57:16.445Z,170.6
2023-10-18T00:58:15.523Z,192.6
2023-10-18T00:59:15.517Z,185.1
2023-10-18T01:00:15.478Z,189.3
2023-10-18T01:01:15.518Z,175.9
2023-10-18T01:02:15.520Z,193.7
2023-10-18T01:03:15.552Z,184
2023-10-18T01:04:15.618Z,183.4
2023-10-18T01:05:15.474Z,181.7
2023-10-18T01:06:15.511Z,182.2
2023-10-18T01:07:15.567Z,188.5
2023-10-18T01:08:15.490Z,158.9
2023-10-18T01:09:15.500Z,185.9
2023-10-18T01:10:15.575Z,184
2023-10-18T01:11:15.525Z,190.2
2023-10-18T01:12:15.520Z,174.2
2023-10-18T01:13:15.533Z,188.5
2023-10-18T01:14:15.499Z,204.7
2023-10-18T01:15:15.531Z,163
2023-10-18T01:16:15.751Z,163.5
2023-10-18T01:17:15.513Z,198.2
2023-10-18T01:18:15.486Z,194
2023-10-18T01:19:15.526Z,185.9
2023-10-18T01:20:15.515Z,188.2
2023-10-18T01:21:15.500Z,180.2
2023-10-18T01:22:15.528Z,184.5
2023-10-18T01:23:15.499Z,172.8
2023-10-18T01:24:15.560Z,190.4
2023-10-18T01:25:15.552Z,197.7
2023-10-18T01:26:15.514Z,200.8
2023-10-18T01:27:15.508Z,171.1
2023-10-18T01:28:15.569Z,175.1
2023-10-18T01:29:15.495Z,182.2
2023-10-18T01:30:15.490Z,190.4
2023-10-18T01:31:15.598Z,188.2
2023-10-18T01:32:15.511Z,194.5
2023-10-18T01:33:15.493Z,191.5
2023-10-18T01:34:15.506Z,203.7
2023-10-18T01:35:15.512Z,189.9
2023-10-18T01:36:15.507Z,203.9
2023-10-18T01:37:15.512Z,187.6
2023-10-18T01:38:15.529Z,191.8
2023-10-18T01:39:15.457Z,185.4
2023-10-18T01:40:15.578Z,184.8
2023-10-18T01:41:15.519Z,179.1
2023-10-18T01:42:15.525Z,174
2023-10-18T01:43:15.566Z,189.6
2023-10-18T01:44:15.502Z,191.3
2023-10-18T01:45:15.505Z,180.8
2023-10-18T01:46:15.597Z,186.2
2023-10-18T01:47:15.542Z,175.1
2023-10-18T01:48:15.534Z,160.9
2023-10-18T01:49:15.543Z,159.4
2023-10-18T01:50:15.475Z,177.4
2023-10-18T01:51:15.513Z,193.4
2023-10-18T01:52:15.557Z,191.5
2023-10-18T01:53:15.513Z,175.4
2023-10-18T01:54:15.538Z,195.1
2023-10-18T01:55:15.490Z,161.4
2023-10-18T01:56:15.479Z,172.5
2023-10-18T01:57:15.515Z,172.5
2023-10-18T01:58:15.578Z,180.2
2023-10-18T01:59:15.526Z,182
2023-10-18T02:00:15.516Z,186.8
2023-10-18T02:01:15.568Z,185.1
2023-10-18T02:02:15.510Z,182.2
2023-10-18T02:03:15.572Z,191.5
2023-10-18T02:04:15.535Z,204.4
2023-10-18T02:05:15.494Z,190.7
2023-10-18T02:06:15.532Z,190.2
2023-10-18T02:07:15.559Z,167
2023-10-18T02:08:15.510Z,170.6
2023-10-18T02:09:15.509Z,147.3
2023-10-18T02:10:15.560Z,177.9
2023-10-18T02:11:15.477Z,124.9
2023-10-18T02:12:15.516Z,199
2023-10-18T02:13:15.582Z,159.9
2023-10-18T02:14:15.521Z,163
2023-10-18T02:15:15.462Z,156
2023-10-18T02:16:15.601Z,153.6
2023-10-18T02:17:15.523Z,165.4
2023-10-18T02:18:15.682Z,191.8
2023-10-18T02:19:15.554Z,186.5
2023-10-18T02:20:15.512Z,161.9
2023-10-18T02:21:15.466Z,177.7
2023-10-18T02:22:15.547Z,167.8
2023-10-18T02:23:15.499Z,174.8
2023-10-18T02:24:15.493Z,173.4
2023-10-18T02:25:15.520Z,165.4
2023-10-18T02:26:15.483Z,138.6
2023-10-18T02:27:15.494Z,181.4
2023-10-18T02:28:15.494Z,157.4
2023-10-18T02:29:15.497Z,187.4
2023-10-18T02:30:15.514Z,146.9
2023-10-18T02:31:15.515Z,169.5
2023-10-18T02:32:15.491Z,124.2
2023-10-18T02:33:15.511Z,110
2023-10-18T02:34:28.459Z,147.3
2023-10-18T02:35:15.487Z,165.4
2023-10-18T02:36:15.510Z,141.6
2023-10-18T02:37:15.519Z,159.1
2023-10-18T02:38:15.470Z,155
2023-10-18T02:39:15.507Z,168.1
2023-10-18T02:40:15.509Z,161.7
2023-10-18T02:41:15.490Z,177.1
2023-10-18T02:42:15.486Z,171.7
2023-10-18T02:43:15.529Z,185.4
2023-10-18T02:44:15.513Z,174
2023-10-18T02:45:15.648Z,174.8
2023-10-18T02:46:15.520Z,180
2023-10-18T02:47:15.463Z,186.8
2023-10-18T02:48:15.484Z,174.5
2023-10-18T02:49:15.547Z,169.2
2023-10-18T02:50:15.808Z,152.7
2023-10-18T02:51:15.481Z,177.9
2023-10-18T02:52:15.549Z,167.5
2023-10-18T02:53:15.489Z,167.8
2023-10-18T02:54:15.498Z,182.5
2023-10-18T02:55:15.507Z,175.4
2023-10-18T02:56:15.462Z,165.6
2023-10-18T02:57:15.480Z,177.7
2023-10-18T02:58:15.585Z,157.7
2023-10-18T02:59:15.443Z,155.5
2023-10-18T03:00:15.497Z,151.4
2023-10-18T03:01:15.625Z,132.1
2023-10-18T03:02:15.479Z,127.4
2023-10-18T03:03:15.484Z,190.2
2023-10-18T03:04:15.596Z,134.8
2023-10-18T03:05:15.498Z,15.3
2023-10-18T03:06:15.702Z,31.3
2023-10-18T03:07:15.608Z,30.9
2023-10-18T03:08:15.464Z,27.9
2023-10-18T03:09:15.478Z,21.3
2023-10-18T03:10:15.527Z,30.9
2023-10-18T03:11:15.481Z,18.7
2023-10-18T03:12:15.470Z,8.2
2023-10-18T03:13:15.487Z,6.5
2023-10-18T03:14:15.471Z,349.2
2023-10-18T03:15:15.500Z,339.4
2023-10-18T03:16:15.546Z,293
2023-10-18T03:17:15.539Z,293.7
2023-10-18T03:18:15.519Z,243.4
2023-10-18T03:19:15.495Z,248.4
2023-10-18T03:20:15.480Z,237.5
2023-10-18T03:21:15.494Z,243.4
2023-10-18T03:22:15.495Z,242.7
2023-10-18T03:23:15.501Z,236.1
2023-10-18T03:24:15.504Z,187.1
2023-10-18T03:25:15.551Z,130
2023-10-18T03:26:15.508Z,103.7
2023-10-18T03:27:15.461Z,119.4
2023-10-18T03:28:15.547Z,118.8
2023-10-18T03:29:15.477Z,131.9
2023-10-18T03:30:15.507Z,145.3
2023-10-18T03:31:15.518Z,138.6
2023-10-18T03:32:15.462Z,148.4
2023-10-18T03:33:15.579Z,149.4
2023-10-18T03:34:15.524Z,103.4
2023-10-18T03:35:15.454Z,137.8
2023-10-18T03:36:20.863Z,112
2023-10-18T03:37:15.514Z,197.4
2023-10-18T03:38:15.493Z,160.7
2023-10-18T03:39:15.508Z,170.9
2023-10-18T03:40:15.550Z,154.1
2023-10-18T03:41:15.486Z,152
2023-10-18T03:42:15.500Z,133.9
2023-10-18T03:43:15.533Z,113.5
2023-10-18T03:44:15.467Z,66.4
2023-10-18T03:45:15.503Z,94.2
2023-10-18T03:46:15.683Z,68.9
2023-10-18T03:47:15.531Z,63.2
2023-10-18T03:48:15.499Z,84.2
2023-10-18T03:49:15.505Z,80.6
2023-10-18T03:50:15.467Z,88.5
2023-10-18T03:51:15.488Z,63.8
2023-10-18T03:52:15.586Z,55
2023-10-18T03:53:15.501Z,73
2023-10-18T03:54:15.502Z,29.8
2023-10-18T03:55:15.558Z,39.8
2023-10-18T03:56:15.494Z,54.4
2023-10-18T03:57:15.463Z,40.6
2023-10-18T03:58:15.545Z,57.3
2023-10-18T03:59:15.456Z,30.1
2023-10-18T04:00:15.500Z,310
2023-10-18T04:01:15.572Z,124.7
2023-10-18T04:02:15.476Z,305.7
2023-10-18T04:03:15.502Z,28.5
2023-10-18T04:04:15.545Z,281.8
2023-10-18T04:05:15.489Z,295.8
2023-10-18T04:06:15.431Z,266.2
2023-10-18T04:07:15.507Z,277.6
2023-10-18T04:08:15.919Z,271.7
2023-10-18T04:09:15.493Z,274.2
2023-10-18T04:10:15.468Z,249.9
2023-10-18T04:11:15.490Z,189.6
2023-10-18T04:12:15.474Z,220.5
2023-10-18T04:13:15.754Z,235.7
2023-10-18T04:14:15.466Z,224.8
2023-10-18T04:15:15.450Z,252.5
2023-10-18T04:16:15.521Z,185.7
2023-10-18T04:17:15.485Z,182.5
2023-10-18T04:18:15.483Z,190.7
2023-10-18T04:19:15.522Z,165.6
2023-10-18T04:20:15.465Z,169.7
2023-10-18T04:21:15.495Z,154.3
2023-10-18T04:22:15.508Z,149
2023-10-18T04:23:15.483Z,146.9
2023-10-18T04:24:15.511Z,150.5
2023-10-18T04:25:15.659Z,132.7
2023-10-18T04:26:15.472Z,148.8
2023-10-18T04:27:15.475Z,152.9
2023-10-18T04:28:15.534Z,151.1
2023-10-18T04:29:15.483Z,148.4
2023-10-18T04:30:15.470Z,145.2
2023-10-18T04:31:15.575Z,144
2023-10-18T04:32:15.445Z,104.8
2023-10-18T04:33:15.532Z,110.3
2023-10-18T04:34:15.593Z,76.2
2023-10-18T04:35:15.481Z,42.9
2023-10-18T04:36:15.485Z,94.2
2023-10-18T04:37:15.493Z,108.2
2023-10-18T04:38:15.464Z,73.5
2023-10-18T04:39:15.467Z,200.8
2023-10-18T04:40:15.540Z,159.9
2023-10-18T04:41:15.487Z,168.1
2023-10-18T04:42:15.492Z,234.2
2023-10-18T04:43:15.442Z,220.8
2023-10-18T04:44:15.461Z,235.7
2023-10-18T04:45:15.482Z,198.5
2023-10-18T04:46:15.552Z,150.7
2023-10-18T04:47:15.644Z,176.8
2023-10-18T04:48:15.455Z,184.8
2023-10-18T04:49:15.511Z,181.1
2023-10-18T04:50:15.463Z,153.2
2023-10-18T04:51:15.441Z,174.5
2023-10-18T04:52:15.474Z,167
2023-10-18T04:53:15.443Z,210.9
2023-10-18T04:54:15.437Z,152.5
2023-10-18T04:55:15.556Z,145.9
2023-10-18T04:56:15.459Z,143.4
2023-10-18T04:57:15.435Z,131.6
2023-10-18T04:58:15.524Z,150.1
2023-10-18T04:59:15.463Z,99
2023-10-18T05:00:15.492Z,133
2023-10-18T05:01:15.553Z,118.1
2023-10-18T05:02:15.500Z,82.3
2023-10-18T05:03:15.560Z,145.3
2023-10-18T05:04:15.562Z,123.8
2023-10-18T05:05:15.472Z,165.4
2023-10-18T05:06:15.471Z,135.8
2023-10-18T05:07:15.625Z,145.7
2023-10-18T05:08:15.478Z,162.2
2023-10-18T05:09:15.483Z,210.3
2023-10-18T05:10:15.693Z,182.8
2023-10-18T05:11:15.481Z,182.5
2023-10-18T05:12:15.485Z,189.6
2023-10-18T05:13:15.561Z,163
2023-10-18T05:14:15.456Z,147.7
2023-10-18T05:15:15.445Z,130.3
2023-10-18T05:16:15.551Z,170.9
2023-10-18T05:17:15.569Z,175.1
2023-10-18T05:18:15.486Z,142.4
2023-10-18T05:19:15.492Z,161.4
2023-10-18T05:20:15.466Z,131.1
2023-10-18T05:21:15.482Z,145.2
2023-10-18T05:22:15.571Z,155.7
2023-10-18T05:23:15.462Z,125.3
2023-10-18T05:24:15.472Z,156.2
2023-10-18T05:25:15.659Z,154.1
2023-10-18T05:26:15.444Z,171.4
2023-10-18T05:27:15.482Z,153.2
2023-10-18T05:28:15.467Z,165.6
2023-10-18T05:29:15.470Z,175.7
2023-10-18T05:30:15.483Z,190.4
2023-10-18T05:31:15.489Z,155.5
2023-10-18T05:32:15.507Z,167.8
2023-10-18T05:33:15.490Z,160.4
2023-10-18T05:34:15.543Z,171.7
2023-10-18T05:35:15.495Z,148.4
2023-10-18T05:36:15.484Z,159.1
2023-10-18T05:37:15.573Z,190.4
2023-10-18T05:38:15.491Z,176.5
2023-10-18T05:39:15.494Z,176.2
2023-10-18T05:40:15.487Z,172
2023-10-18T05:41:15.466Z,175.1
2023-10-18T05:42:15.448Z,160.9
2023-10-18T05:43:15.483Z,180.5
2023-10-18T05:44:15.491Z,183.7
2023-10-18T05:45:15.490Z,189.6
2023-10-18T05:46:15.549Z,176.8
2023-10-18T05:47:15.473Z,176.8
2023-10-18T05:48:15.480Z,163.3
2023-10-18T05:49:15.583Z,185.7
2023-10-18T05:50:15.467Z,170.6
2023-10-18T05:51:20.439Z,175.9
2023-10-18T05:52:15.541Z,160.2
2023-10-18T05:53:15.450Z,174
2023-10-18T05:54:15.469Z,168.6
2023-10-18T05:55:15.510Z,175.1
2023-10-18T05:56:15.484Z,187.4
2023-10-18T05:57:15.468Z,174.5
2023-10-18T05:58:15.508Z,191.8
2023-10-18T05:59:15.482Z,164.6
2023-10-18T06:00:15.495Z,174.2
2023-10-18T06:01:15.564Z,172.8
2023-10-18T06:02:15.480Z,172.3
2023-10-18T06:03:15.488Z,165.9
2023-10-18T06:04:15.545Z,173.7
2023-10-18T06:05:15.494Z,159.6
2023-10-18T06:06:15.493Z,168.4
2023-10-18T06:07:15.492Z,175.7
2023-10-18T06:08:15.461Z,148.8
2023-10-18T06:09:15.482Z,154.1
2023-10-18T06:10:15.457Z,156.2
2023-10-18T06:11:15.476Z,191.3
2023-10-18T06:12:15.472Z,173.4
2023-10-18T06:13:15.515Z,168.4
2023-10-18T06:14:15.482Z,155.7
2023-10-18T06:15:17.806Z,170
2023-10-18T06:16:15.642Z,182.8
2023-10-18T06:17:15.449Z,169.7
2023-10-18T06:18:15.449Z,139.6
2023-10-18T06:19:15.481Z,159.6
2023-10-18T06:20:15.554Z,162.7
2023-10-18T06:21:15.468Z,168.4
2023-10-18T06:22:15.510Z,136
2023-10-18T06:23:15.466Z,177.7
2023-10-18T06:24:15.491Z,165.4
2023-10-18T06:25:15.521Z,173.1
2023-10-18T06:26:15.463Z,170
2023-10-18T06:27:15.486Z,162.5
2023-10-18T06:28:15.513Z,162.5
2023-10-18T06:29:15.464Z,174.5
2023-10-18T06:30:15.499Z,160.9
2023-10-18T06:31:15.597Z,165.4
2023-10-18T06:32:15.515Z,176.8
2023-10-18T06:33:15.469Z,167
2023-10-18T06:34:15.510Z,163
2023-10-18T06:35:15.502Z,173.7
2023-10-18T06:36:15.451Z,151.4
2023-10-18T06:37:15.499Z,174.8
2023-10-18T06:38:15.471Z,180.2
2023-10-18T06:39:15.466Z,169.7
2023-10-18T06:40:15.518Z,162.2
2023-10-18T06:41:15.453Z,165.4
2023-10-18T06:42:15.459Z,205.4
2023-10-18T06:43:15.541Z,198
2023-10-18T06:44:15.456Z,151.1
2023-10-18T06:45:15.502Z,141.5
2023-10-18T06:46:15.569Z,156.4
2023-10-18T06:47:15.478Z,183.4
2023-10-18T06:48:15.484Z,151.8
2023-10-18T06:49:15.559Z,157.4
2023-10-18T06:50:18.322Z,188.8
2023-10-18T06:51:15.525Z,117.9
2023-10-18T06:52:17.805Z,180
2023-10-18T06:53:15.529Z,170.3
2023-10-18T06:54:15.493Z,126.8
2023-10-18T06:55:15.532Z,170.3
2023-10-18T06:56:15.471Z,180
2023-10-18T06:57:15.486Z,156.9
2023-10-18T06:58:15.531Z,134.7
2023-10-18T06:59:15.497Z,130.1
2023-10-18T07:00:15.462Z,123.4
2023-10-18T07:01:15.705Z,169.7
2023-10-18T07:02:15.512Z,139.4
2023-10-18T07:03:15.551Z,146.7
2023-10-18T07:04:15.525Z,138.1
2023-10-18T07:05:15.465Z,161.4
2023-10-18T07:06:15.483Z,125.3
2023-10-18T07:07:15.463Z,140.9
2023-10-18T07:08:15.496Z,159.6
2023-10-18T07:09:15.459Z,157.4
2023-10-18T07:10:15.502Z,180.2
2023-10-18T07:11:22.271Z,150.5
2023-10-18T07:12:15.468Z,138.9
2023-10-18T07:13:15.522Z,155.2
2023-10-18T07:14:15.469Z,131.1
2023-10-18T07:15:15.468Z,127.2
2023-10-18T07:16:15.697Z,153.8
2023-10-18T07:17:15.478Z,152.3
2023-10-18T07:18:15.469Z,127.4
2023-10-18T07:19:15.518Z,177.7
2023-10-18T07:20:15.503Z,127.7
2023-10-18T07:21:15.483Z,139.4
2023-10-18T07:22:15.524Z,145.7
2023-10-18T07:23:15.487Z,141.1
2023-10-18T07:24:15.477Z,173.7
2023-10-18T07:25:15.496Z,165.4
2023-10-18T07:26:15.468Z,146.9
2023-10-18T07:27:15.466Z,159.4
2023-10-18T07:28:15.501Z,153.6
2023-10-18T07:29:15.450Z,167.3
2023-10-18T07:30:15.715Z,179.7
2023-10-18T07:31:15.546Z,165.6
2023-10-18T07:32:15.535Z,162.2
2023-10-18T07:33:15.486Z,169.5
2023-10-18T07:34:15.508Z,163.3
2023-10-18T07:35:15.485Z,165.4
2023-10-18T07:36:15.468Z,179.4
2023-10-18T07:37:15.518Z,177.1
2023-10-18T07:38:17.905Z,206.5
2023-10-18T07:39:15.471Z,189.3
2023-10-18T07:40:15.510Z,184.2
2023-10-18T07:41:15.483Z,172.8
2023-10-18T07:42:15.497Z,164.6
2023-10-18T07:43:15.509Z,201.5
2023-10-18T07:44:15.481Z,177.1
2023-10-18T07:45:15.492Z,181.1
2023-10-18T07:46:15.499Z,213.8
2023-10-18T07:47:15.490Z,189.3
2023-10-18T07:48:15.494Z,199.2
2023-10-18T07:49:16.041Z,189.9
2023-10-18T07:50:15.497Z,194
2023-10-18T07:51:15.483Z,206.3
2023-10-18T07:52:15.503Z,211.1
2023-10-18T07:53:15.496Z,187.9
2023-10-18T07:54:15.482Z,168.9
2023-10-18T07:55:15.541Z,166.2
2023-10-18T07:56:15.464Z,195.3
2023-10-18T07:57:15.490Z,190.7
2023-10-18T07:58:15.475Z,209.8
2023-10-18T07:59:15.474Z,182.5
2023-10-18T08:00:15.490Z,163.5
2023-10-18T08:01:15.525Z,199
2023-10-18T08:02:15.466Z,209
2023-10-18T08:03:15.540Z,196.9
2023-10-18T08:04:15.676Z,214.4
2023-10-18T08:05:15.719Z,202
2023-10-18T08:06:15.548Z,196.1
2023-10-18T08:07:15.513Z,210.7
2023-10-18T08:08:15.464Z,177.1
2023-10-18T08:09:15.448Z,181.4
2023-10-18T08:10:15.517Z,170
2023-10-18T08:11:15.476Z,162.7
2023-10-18T08:12:15.497Z,134.2
2023-10-18T08:13:15.554Z,180.2
2023-10-18T08:14:15.484Z,180
2023-10-18T08:15:15.602Z,211.7
2023-10-18T08:16:15.507Z,172
2023-10-18T08:17:15.501Z,216.5
2023-10-18T08:18:15.450Z,180.2
2023-10-18T08:19:15.490Z,203.5
2023-10-18T08:20:15.491Z,218.3
2023-10-18T08:21:15.463Z,221.3
2023-10-18T08:22:15.465Z,213.4
2023-10-18T08:23:15.485Z,206.3
2023-10-18T08:24:15.478Z,203.7
2023-10-18T08:25:15.481Z,209.4
2023-10-18T08:26:15.497Z,215.7
2023-10-18T08:27:15.487Z,191.3
2023-10-18T08:28:15.562Z,183.4
2023-10-18T08:29:15.471Z,190.4
2023-10-18T08:30:15.470Z,214.2
2023-10-18T08:31:15.538Z,211.5
2023-10-18T08:32:15.540Z,216.8
2023-10-18T08:33:15.484Z,212.4
2023-10-18T08:34:15.597Z,191.3
2023-10-18T08:35:15.493Z,196.9
2023-10-18T08:36:15.497Z,178.2
2023-10-18T08:37:15.526Z,212.8
2023-10-18T08:38:15.496Z,221.6
2023-10-18T08:39:15.486Z,206.1
2023-10-18T08:40:15.548Z,196.6
2023-10-18T08:41:15.479Z,207.4
2023-10-18T08:42:15.500Z,222.1
2023-10-18T08:43:15.485Z,219.6
2023-10-18T08:44:15.467Z,221.8
2023-10-18T08:45:15.455Z,203.7
2023-10-18T08:46:15.524Z,223.5
2023-10-18T08:47:18.063Z,223.8
2023-10-18T08:48:15.512Z,215.3
2023-10-18T08:49:15.482Z,213
2023-10-18T08:50:15.471Z,216.5
2023-10-18T08:51:15.460Z,185.4
2023-10-18T08:52:15.489Z,179.7
2023-10-18T08:53:15.481Z,215.3
2023-10-18T08:54:15.465Z,204.7
2023-10-18T08:55:15.531Z,208.3
2023-10-18T08:56:15.457Z,202
2023-10-18T08:57:15.452Z,187.6
2023-10-18T08:58:15.522Z,191.5
2023-10-18T08:59:15.469Z,209.4
2023-10-18T09:00:15.468Z,209
2023-10-18T09:01:15.537Z,211.1
2023-10-18T09:02:15.546Z,174.8
2023-10-18T09:03:15.550Z,193.4
2023-10-18T09:04:15.535Z,198.5
2023-10-18T09:05:15.442Z,194.3
2023-10-18T09:06:15.486Z,203
2023-10-18T09:07:15.508Z,194
2023-10-18T09:08:15.466Z,221.6
2023-10-18T09:09:15.492Z,186.5
2023-10-18T09:10:15.576Z,193.2
2023-10-18T09:11:15.475Z,211.5
2023-10-18T09:12:15.462Z,211.1
2023-10-18T09:13:18.750Z,206.3
2023-10-18T09:14:15.550Z,194.8
2023-10-18T09:15:15.482Z,204.2
2023-10-18T09:16:15.535Z,203
2023-10-18T09:17:15.563Z,211.3
2023-10-18T09:18:15.528Z,214
2023-10-18T09:19:15.567Z,204.2
2023-10-18T09:20:15.439Z,227
2023-10-18T09:21:15.489Z,229.1
2023-10-18T09:22:15.562Z,214
2023-10-18T09:23:15.490Z,208.5
2023-10-18T09:24:15.487Z,207.9
2023-10-18T09:25:15.508Z,228.3
2023-10-18T09:26:15.466Z,212
2023-10-18T09:27:15.488Z,215.3
2023-10-18T09:28:15.569Z,218.1
2023-10-18T09:29:15.473Z,218.4
2023-10-18T09:30:15.493Z,211.3
2023-10-18T09:31:15.899Z,200.8
2023-10-18T09:32:15.526Z,210.9
2023-10-18T09:33:15.487Z,230.3
2023-10-18T09:34:15.543Z,221.1
2023-10-18T09:35:15.483Z,213
2023-10-18T09:36:15.468Z,214.2
2023-10-18T09:37:15.582Z,234.8
2023-10-18T09:38:15.504Z,193.4
2023-10-18T09:39:15.479Z,236.1
2023-10-18T09:40:15.516Z,217.4
2023-10-18T09:41:15.446Z,207
2023-10-18T09:42:15.464Z,202.5
2023-10-18T09:43:15.486Z,213.4
2023-10-18T09:44:15.457Z,198.5
2023-10-18T09:45:15.465Z,221.9
2023-10-18T09:46:15.533Z,196.6
2023-10-18T09:47:15.549Z,214.4
2023-10-18T09:48:15.509Z,195.1
2023-10-18T09:49:15.506Z,203.2
2023-10-18T09:50:15.489Z,202.7
2023-10-18T09:51:15.482Z,216.3
2023-10-18T09:52:15.507Z,215.9
2023-10-18T09:53:15.457Z,214.6
2023-10-18T09:54:15.506Z,213.8
2023-10-18T09:55:15.459Z,191.3
2023-10-18T09:56:15.493Z,172
2023-10-18T09:57:15.462Z,155.5
2023-10-18T09:58:15.513Z,201.5
2023-10-18T09:59:15.480Z,196.4
2023-10-18T10:00:15.484Z,209
2023-10-18T10:01:15.599Z,212
2023-10-18T10:02:15.635Z,209.4
2023-10-18T10:03:15.674Z,210.1
2023-10-18T10:04:16.289Z,195.3
2023-10-18T10:05:15.472Z,223.5
2023-10-18T10:06:15.448Z,199.7
2023-10-18T10:07:15.536Z,187.4
2023-10-18T10:08:15.487Z,207.2
2023-10-18T10:09:15.456Z,211.3
2023-10-18T10:10:15.505Z,205.6
2023-10-18T10:11:15.484Z,217.2
2023-10-18T10:12:15.484Z,208.3
2023-10-18T10:13:15.495Z,210.5
2023-10-18T10:14:15.469Z,201
2023-10-18T10:15:15.488Z,187.6
2023-10-18T10:16:15.516Z,169.2
2023-10-18T10:17:15.501Z,171.4
2023-10-18T10:18:15.536Z,218.1
2023-10-18T10:19:15.515Z,235.3
2023-10-18T10:20:15.476Z,206.5
2023-10-18T10:21:15.486Z,223.6
2023-10-18T10:22:15.534Z,179.4
2023-10-18T10:23:15.470Z,231.3
2023-10-18T10:24:15.447Z,214.4
2023-10-18T10:25:33.588Z,154.1
2023-10-18T10:26:32.472Z,193.2
2023-10-18T10:27:15.470Z,212.6
2023-10-18T10:28:15.575Z,208.3
2023-10-18T10:29:15.463Z,182.8
2023-10-18T10:30:15.466Z,205.6
2023-10-18T10:31:15.521Z,209
2023-10-18T10:32:15.484Z,196.9
2023-10-18T10:33:15.508Z,206.5
2023-10-18T10:34:15.467Z,196.1
2023-10-18T10:35:15.475Z,215.1
2023-10-18T10:36:15.483Z,214.7
2023-10-18T10:37:15.491Z,192.4
2023-10-18T10:38:16.378Z,222.1
2023-10-18T10:39:15.489Z,187.9
2023-10-18T10:40:15.484Z,189
2023-10-18T10:41:15.481Z,221.6
2023-10-18T10:42:15.463Z,219.3
2023-10-18T10:43:15.535Z,218.4
2023-10-18T10:44:15.491Z,191.3
2023-10-18T10:45:15.480Z,213.2
2023-10-18T10:46:15.553Z,193.2
2023-10-18T10:47:15.515Z,183.4
2023-10-18T10:48:15.486Z,184
2023-10-18T10:49:15.546Z,189.9
2023-10-18T10:50:15.508Z,211.3
2023-10-18T10:51:15.473Z,216.3
2023-10-18T10:52:15.501Z,214.7
2023-10-18T10:53:15.485Z,214.2
2023-10-18T10:54:15.471Z,215.5
2023-10-18T10:55:15.555Z,214.9
2023-10-18T10:56:15.459Z,213.8
2023-10-18T10:57:15.836Z,211.1
2023-10-18T10:58:15.558Z,198.7
2023-10-18T10:59:15.489Z,226
2023-10-18T11:00:15.490Z,202.7
2023-10-18T11:01:15.565Z,218.1
2023-10-18T11:02:15.529Z,193.2
2023-10-18T11:03:15.521Z,226
2023-10-18T11:04:15.503Z,189
2023-10-18T11:05:15.463Z,223.5
2023-10-18T11:06:15.497Z,189.3
2023-10-18T11:07:15.555Z,191.8
2023-10-18T11:08:15.433Z,199.7
2023-10-18T11:09:15.458Z,163.8
2023-10-18T11:10:15.523Z,170
2023-10-18T11:11:15.463Z,195.3
2023-10-18T11:12:15.463Z,202.2
2023-10-18T11:13:15.493Z,200
2023-10-18T11:14:15.481Z,171.7
2023-10-18T11:15:15.445Z,171.1
2023-10-18T11:16:15.541Z,169.5
2023-10-18T11:17:15.817Z,210.5
2023-10-18T11:18:15.471Z,198.5
2023-10-18T11:19:15.477Z,180.8
2023-10-18T11:20:15.491Z,205.1
2023-10-18T11:21:15.480Z,220
2023-10-18T11:22:15.478Z,156.9
2023-10-18T11:23:15.472Z,198
2023-10-18T11:24:15.467Z,176.8
2023-10-18T11:25:15.492Z,170.3
2023-10-18T11:26:15.486Z,170.9
2023-10-18T11:27:15.446Z,196.6
2023-10-18T11:28:15.499Z,161.2
2023-10-18T11:29:15.467Z,169.7
2023-10-18T11:30:15.506Z,180
2023-10-18T11:31:15.628Z,192.6
2023-10-18T11:32:15.651Z,217
2023-10-18T11:33:15.512Z,202.2
2023-10-18T11:34:15.651Z,205.6
2023-10-18T11:35:18.050Z,207.4
2023-10-18T11:36:15.498Z,189.3
2023-10-18T11:37:15.557Z,191.3
2023-10-18T11:38:15.504Z,183.7
2023-10-18T11:39:15.454Z,196.6
2023-10-18T11:40:15.503Z,206.1
2023-10-18T11:41:15.500Z,196.9
2023-10-18T11:42:15.493Z,208.1
2023-10-18T11:43:15.514Z,175.9
2023-10-18T11:44:15.453Z,198
2023-10-18T11:45:15.472Z,189
2023-10-18T11:46:15.532Z,198.2
2023-10-18T11:47:15.440Z,211.5
2023-10-18T11:48:15.724Z,225.4
2023-10-18T11:49:15.500Z,197.7
2023-10-18T11:50:15.494Z,206.5
2023-10-18T11:51:15.442Z,210.9
2023-10-18T11:52:15.568Z,200
2023-10-18T11:53:15.516Z,177.4
2023-10-18T11:54:15.459Z,187.6
2023-10-18T11:55:15.519Z,210.7
2023-10-18T11:56:15.484Z,190.4
2023-10-18T11:57:15.469Z,168.9
2023-10-18T11:58:15.482Z,171.7
2023-10-18T11:59:15.472Z,199.5
2023-10-18T12:00:15.485Z,197.2
2023-10-18T12:01:15.492Z,161.2
2023-10-18T12:02:15.542Z,189.3
2023-10-18T12:03:15.658Z,175.4
2023-10-18T12:04:15.603Z,215.7
2023-10-18T12:05:15.572Z,207.2
2023-10-18T12:06:15.497Z,193.2
2023-10-18T12:07:15.584Z,219.1
2023-10-18T12:08:15.461Z,201.5
2023-10-18T12:09:15.472Z,177.1
2023-10-18T12:10:15.505Z,197.7
2023-10-18T12:11:15.431Z,187.4
2023-10-18T12:12:15.474Z,202
2023-10-18T12:13:15.489Z,208.8
2023-10-18T12:14:15.464Z,177.1
2023-10-18T12:15:15.428Z,192.6
2023-10-18T12:16:15.536Z,200
2023-10-18T12:17:15.485Z,187.6
2023-10-18T12:18:15.515Z,167
2023-10-18T12:19:15.526Z,194
2023-10-18T12:20:15.449Z,165.4
2023-10-18T12:21:15.462Z,155.7
2023-10-18T12:22:15.484Z,139.4
2023-10-18T12:23:17.235Z,165.6
2023-10-18T12:24:15.490Z,131.9
2023-10-18T12:25:15.523Z,153.6
2023-10-18T12:26:15.445Z,171.1
2023-10-18T12:27:15.491Z,167
2023-10-18T12:28:15.528Z,168.9
2023-10-18T12:29:15.467Z,164.8
2023-10-18T12:30:30.336Z,172.5
2023-10-18T12:31:15.483Z,161.2
2023-10-18T12:32:15.563Z,185.9
2023-10-18T12:33:15.653Z,184.5
2023-10-18T12:34:15.539Z,140.4
2023-10-18T12:35:15.488Z,179.1
2023-10-18T12:36:15.488Z,180
2023-10-18T12:37:15.474Z,194.5
2023-10-18T12:38:15.549Z,185.7
2023-10-18T12:39:15.483Z,203.2
2023-10-18T12:40:15.486Z,167.8
2023-10-18T12:41:15.469Z,204.2
2023-10-18T12:42:15.490Z,160.4
2023-10-18T12:43:15.484Z,205.6
2023-10-18T12:44:15.484Z,142.7
2023-10-18T12:45:15.465Z,174.5
2023-10-18T12:46:15.585Z,182
2023-10-18T12:47:15.450Z,215.7
2023-10-18T12:48:15.496Z,200.3
2023-10-18T12:49:15.500Z,186.5
2023-10-18T12:50:15.470Z,174
2023-10-18T12:51:15.482Z,177.9
2023-10-18T12:52:15.437Z,181.1
2023-10-18T12:53:15.541Z,148.4
2023-10-18T12:55:15.516Z,182
2023-10-18T12:56:15.466Z,160.9
2023-10-18T12:57:15.521Z,180.8
2023-10-18T12:58:15.486Z,167.5
2023-10-18T12:59:15.525Z,163.8
2023-10-18T13:00:15.484Z,177.9